CheckWX is a tool to help pilots better visualize weather data.  It is not intended as a substitute for an official pre-flight weather briefing.

23:38:08 UTC

KAJZ METAR
Blake Field Airport
Delta, Colorado, USA
Current

23 mins ago

KAJZ 122315Z AUTO 28004KT 10SM OVC070 05/M03 A3018 RMK AO2 T00501035
Observed
Dec-12 @ 23:15 UTC
Wind
  • 280° at 4 KTS
Visibility
10 SM
Flight Rules
VFR
Cloud Levels
  • Overcast at 7,000' AGL
Temperature
C / 41°F
Dewpoint
-4°C / 25°F
Humidity
53%
Altimeter
30.18" Hg
Pressure
1022.02 hPa
Previous

43 mins ago

KAJZ 122255Z AUTO 27006KT 10SM OVC070 05/M04 A3018 RMK AO2 T00511038
Observed
Dec-12 @ 22:55 UTC
Wind
  • 270° at 6 KTS
Visibility
10 SM
Flight Rules
VFR
Cloud Levels
  • Overcast at 7,000' AGL
Temperature
C / 41°F
Dewpoint
-4°C / 25°F
Humidity
53%
Altimeter
30.18" Hg
Pressure
1022.02 hPa
Previous

1 hour ago

KAJZ 122235Z AUTO 26005KT 10SM BKN080 OVC100 06/M04 A3018 RMK AO2 T00561037
Observed
Dec-12 @ 22:35 UTC
Wind
  • 260° at 5 KTS
Visibility
10 SM
Flight Rules
VFR
Cloud Levels
  • Broken at 8,000' AGL
  • Overcast at 10,000' AGL
Temperature
C / 43°F
Dewpoint
-4°C / 25°F
Humidity
49%
Altimeter
30.18" Hg
Pressure
1022.02 hPa